createdAt,value
2022-09-13T00:02:27.204Z,9.15
2022-09-13T00:05:44.168Z,8.45
2022-09-13T00:09:01.409Z,9.10
2022-09-13T00:12:17.607Z,8.58
2022-09-13T00:15:34.399Z,9.13
2022-09-13T00:18:50.736Z,9.55
2022-09-13T00:22:07.214Z,9.35
2022-09-13T00:25:23.350Z,9.98
2022-09-13T00:28:39.395Z,10.80
2022-09-13T00:31:55.358Z,10.43
2022-09-13T00:35:13.319Z,10.23
2022-09-13T00:38:29.338Z,10.25
2022-09-13T00:41:45.679Z,10.15
2022-09-13T00:45:06.902Z,10.63
2022-09-13T00:48:27.857Z,10.70
2022-09-13T00:51:44.631Z,10.48
2022-09-13T00:55:04.917Z,9.80
2022-09-13T00:58:26.836Z,10.08
2022-09-13T01:01:47.953Z,9.60
2022-09-13T01:05:04.854Z,10.18
2022-09-13T01:08:23.724Z,10.75
2022-09-13T01:11:47.988Z,10.58
2022-09-13T01:15:08.164Z,10.13
2022-09-13T01:18:24.873Z,9.45
2022-09-13T01:22:23.030Z,10.90
2022-09-13T01:26:27.992Z,10.23
2022-09-13T01:30:21.276Z,10.23
2022-09-13T01:33:53.986Z,10.90
2022-09-13T01:37:38.105Z,10.20
2022-09-13T01:41:04.782Z,10.55
2022-09-13T01:44:28.955Z,10.78
2022-09-13T01:47:50.733Z,9.50
2022-09-13T01:51:12.103Z,10.00
2022-09-13T01:54:34.237Z,9.95
2022-09-13T01:57:54.476Z,9.28
2022-09-13T02:01:18.520Z,10.45
2022-09-13T02:04:41.076Z,10.45
2022-09-13T02:08:03.893Z,9.88
2022-09-13T02:11:23.203Z,9.93
2022-09-13T02:18:00.473Z,9.53
2022-09-13T02:21:20.568Z,9.70
2022-09-13T02:24:40.348Z,10.10
2022-09-13T02:28:02.497Z,9.88
2022-09-13T02:31:20.211Z,8.93
2022-09-13T02:34:40.356Z,10.28
2022-09-13T02:38:02.869Z,9.08
2022-09-13T02:41:23.658Z,9.28
2022-09-13T02:44:43.484Z,9.58
2022-09-13T02:48:04.325Z,10.05
2022-09-13T02:51:26.095Z,9.55
2022-09-13T02:54:46.209Z,9.55
2022-09-13T02:58:08.395Z,9.45
2022-09-13T03:01:25.939Z,9.45
2022-09-13T03:04:43.187Z,9.18
2022-09-13T03:08:00.433Z,9.55
2022-09-13T03:11:23.701Z,9.70
2022-09-13T03:14:50.743Z,9.35
2022-09-13T03:18:13.095Z,9.30
2022-09-13T03:21:43.370Z,9.75
2022-09-13T03:25:06.581Z,8.55
2022-09-13T03:28:30.246Z,8.53
2022-09-13T03:31:51.529Z,8.18
2022-09-13T03:35:15.169Z,8.13
2022-09-13T03:38:36.440Z,8.23
2022-09-13T03:41:57.989Z,7.85
2022-09-13T03:45:17.338Z,7.98
2022-09-13T03:51:49.060Z,7.38
2022-09-13T03:55:05.756Z,6.98
2022-09-13T03:58:27.057Z,7.53
2022-09-13T04:01:44.677Z,7.15
2022-09-13T04:05:02.487Z,7.25
2022-09-13T04:08:18.395Z,7.15
2022-09-13T04:11:35.560Z,7.35
2022-09-13T04:14:52.917Z,6.98
2022-09-13T04:18:09.825Z,7.73
2022-09-13T04:21:27.401Z,7.30
2022-09-13T04:24:44.834Z,8.03
2022-09-13T04:28:05.788Z,7.08
2022-09-13T04:31:21.793Z,8.20
2022-09-13T04:34:37.960Z,7.70
2022-09-13T04:37:54.101Z,8.28
2022-09-13T04:41:10.310Z,8.23
2022-09-13T04:44:27.971Z,7.43
2022-09-13T04:47:43.899Z,7.35
2022-09-13T04:50:59.957Z,6.83
2022-09-13T04:54:17.474Z,7.70
2022-09-13T04:57:33.670Z,6.95
2022-09-13T05:00:50.542Z,7.80
2022-09-13T05:04:06.718Z,7.33
2022-09-13T05:07:23.290Z,7.35
2022-09-13T05:10:39.252Z,7.68
2022-09-13T05:13:59.931Z,7.43
2022-09-13T05:17:16.328Z,7.70
2022-09-13T05:20:32.449Z,8.00
2022-09-13T05:23:48.528Z,8.65
2022-09-13T05:27:04.494Z,8.05
2022-09-13T05:30:23.265Z,8.35
2022-09-13T05:33:42.822Z,8.13
2022-09-13T05:36:58.839Z,8.40
2022-09-13T05:40:19.163Z,7.48
2022-09-13T05:43:38.741Z,7.63
2022-09-13T05:46:56.477Z,6.88
2022-09-13T05:50:32.915Z,7.43
2022-09-13T05:53:34.067Z,7.33
2022-09-13T05:56:52.113Z,7.68
2022-09-13T06:00:08.543Z,7.53
2022-09-13T06:03:29.121Z,6.43
2022-09-13T06:06:45.626Z,7.15
2022-09-13T06:10:01.840Z,7.10
2022-09-13T06:13:18.051Z,6.75
2022-09-13T06:16:34.213Z,7.00
2022-09-13T06:19:50.507Z,6.85
2022-09-13T06:23:06.727Z,7.08
2022-09-13T06:26:25.489Z,6.98
2022-09-13T06:29:41.690Z,7.23
2022-09-13T06:32:57.902Z,6.23
2022-09-13T06:36:19.087Z,6.03
2022-09-13T06:39:35.509Z,6.85
2022-09-13T06:42:53.564Z,6.45
2022-09-13T06:46:15.540Z,6.30
2022-09-13T06:49:32.290Z,6.65
2022-09-13T06:52:48.389Z,6.55
2022-09-13T06:56:13.853Z,5.45
2022-09-13T06:59:30.336Z,5.20
2022-09-13T07:02:46.435Z,5.35
2022-09-13T07:06:02.544Z,5.75
2022-09-13T07:09:23.261Z,5.28
2022-09-13T07:12:39.275Z,5.43
2022-09-13T07:15:56.478Z,4.85
2022-09-13T07:19:17.988Z,6.00
2022-09-13T07:22:33.999Z,5.48
2022-09-13T07:25:50.069Z,5.88
2022-09-13T07:29:09.089Z,5.18
2022-09-13T07:32:25.892Z,5.43
2022-09-13T07:35:41.939Z,5.20
2022-09-13T07:38:58.214Z,4.95
2022-09-13T07:42:14.712Z,4.60
2022-09-13T07:45:30.804Z,4.98
2022-09-13T07:48:49.313Z,4.70
2022-09-13T07:52:05.462Z,5.50
2022-09-13T07:55:21.804Z,5.05
2022-09-13T07:58:38.427Z,4.23
2022-09-13T08:01:58.748Z,5.38
2022-09-13T08:05:17.733Z,4.88
2022-09-13T08:08:34.734Z,5.00
2022-09-13T08:11:53.932Z,5.05
2022-09-13T08:15:10.836Z,4.55
2022-09-13T08:18:28.421Z,4.50
2022-09-13T08:21:47.306Z,4.28
2022-09-13T08:25:03.808Z,3.95
2022-09-13T08:28:27.690Z,3.35
2022-09-13T08:31:44.535Z,3.65
2022-09-13T08:35:01.650Z,3.65
2022-09-13T08:38:18.318Z,3.70
2022-09-13T08:41:53.293Z,3.05
2022-09-13T08:45:10.204Z,3.30
2022-09-13T08:48:32.211Z,2.68
2022-09-13T08:51:53.038Z,2.48
2022-09-13T08:55:16.217Z,2.50
2022-09-13T08:58:52.894Z,3.13
2022-09-13T09:02:25.635Z,13.45
2022-09-13T09:05:49.955Z,3.18
2022-09-13T09:09:11.746Z,2.45
2022-09-13T09:12:36.304Z,2.43
2022-09-13T09:15:56.959Z,2.35
2022-09-13T09:19:22.632Z,2.55
2022-09-13T09:23:07.620Z,2.13
2022-09-13T09:26:29.936Z,2.33
2022-09-13T09:29:47.835Z,2.40
2022-09-13T09:33:18.060Z,2.00
2022-09-13T09:36:44.383Z,2.00
2022-09-13T09:40:11.598Z,1.83
2022-09-13T09:43:34.221Z,2.25
2022-09-13T09:46:53.954Z,2.80
2022-09-13T09:50:17.230Z,2.10
2022-09-13T09:53:37.990Z,2.03
2022-09-13T09:57:02.846Z,2.48
2022-09-13T10:00:26.774Z,2.05
2022-09-13T10:03:47.379Z,2.35
2022-09-13T10:07:27.909Z,2.35
2022-09-13T10:10:49.992Z,2.50
2022-09-13T10:14:11.777Z,28.23
2022-09-13T10:17:34.736Z,5.28
2022-09-13T10:20:56.768Z,2.75
2022-09-13T10:24:29.373Z,2.10
2022-09-13T10:27:49.430Z,2.03
2022-09-13T10:31:11.951Z,2.20
2022-09-13T10:34:31.744Z,2.10
2022-09-13T10:37:50.778Z,1.83
2022-09-13T10:41:09.303Z,2.30
2022-09-13T10:44:39.896Z,1.95
2022-09-13T10:47:59.993Z,2.20
2022-09-13T10:51:24.935Z,2.03
2022-09-13T10:54:41.330Z,1.80
2022-09-13T10:57:59.319Z,2.00
2022-09-13T11:01:41.042Z,1.67
2022-09-13T11:05:21.512Z,1.40
2022-09-13T11:08:50.190Z,1.45
2022-09-13T11:12:11.725Z,1.40
2022-09-13T11:15:41.889Z,1.43
2022-09-13T11:19:20.814Z,1.78
2022-09-13T11:26:10.203Z,1.63
2022-09-13T11:33:26.828Z,1.80
2022-09-13T11:37:09.008Z,1.90
2022-09-13T11:40:52.624Z,1.40
2022-09-13T11:44:30.572Z,1.68
2022-09-13T11:47:57.499Z,1.33
2022-09-13T11:51:20.598Z,1.98
2022-09-13T11:54:55.217Z,1.60
2022-09-13T11:58:15.887Z,1.45
2022-09-13T12:01:37.534Z,1.40
2022-09-13T12:05:21.009Z,1.15
2022-09-13T12:08:24.163Z,1.33
2022-09-13T12:11:45.194Z,1.60
2022-09-13T12:15:05.930Z,1.75
2022-09-13T12:18:26.525Z,1.60
2022-09-13T12:21:46.795Z,1.65
2022-09-13T12:25:08.721Z,1.73
2022-09-13T12:28:30.509Z,1.50
2022-09-13T12:31:46.643Z,1.58
2022-09-13T12:35:07.969Z,1.78
2022-09-13T12:38:57.762Z,1.98
2022-09-13T12:42:43.077Z,2.20
2022-09-13T12:46:36.635Z,1.60
2022-09-13T12:54:10.892Z,1.60
2022-09-13T12:57:42.077Z,1.33
2022-09-13T13:01:09.130Z,1.30
2022-09-13T13:04:29.470Z,1.20
2022-09-13T13:07:48.002Z,2.90
2022-09-13T13:11:14.680Z,1.90
2022-09-13T13:14:54.212Z,1.50
2022-09-13T13:18:28.420Z,1.90
2022-09-13T13:21:47.852Z,2.03
2022-09-13T13:25:05.652Z,2.00
2022-09-13T13:29:20.944Z,2.30
2022-09-13T13:32:39.167Z,2.03
2022-09-13T13:35:58.468Z,2.23
2022-09-13T13:39:17.700Z,2.23
2022-09-13T13:42:40.397Z,2.30
2022-09-13T13:46:37.127Z,2.03
2022-09-13T13:49:58.155Z,2.10
2022-09-13T13:53:34.556Z,2.20
2022-09-13T13:56:57.322Z,2.10
2022-09-13T14:00:21.729Z,2.13
2022-09-13T14:04:07.895Z,2.28
2022-09-13T14:07:58.620Z,1.80
2022-09-13T14:11:26.247Z,2.08
2022-09-13T14:15:02.776Z,2.60
2022-09-13T14:18:58.457Z,2.10
2022-09-13T14:22:27.501Z,2.15
2022-09-13T14:25:44.364Z,2.73
2022-09-13T14:29:00.500Z,2.95
2022-09-13T14:32:23.738Z,3.28
2022-09-13T14:35:44.424Z,2.80
2022-09-13T14:39:04.695Z,2.48
2022-09-13T14:42:26.992Z,8.65
2022-09-13T14:45:46.169Z,3.45
2022-09-13T14:49:06.496Z,3.05
2022-09-13T14:52:29.750Z,2.70
2022-09-13T14:55:49.679Z,3.05
2022-09-13T14:59:09.898Z,2.55
2022-09-13T15:02:30.909Z,3.15
2022-09-13T15:05:47.765Z,2.63
2022-09-13T15:09:09.447Z,3.53
2022-09-13T15:12:33.865Z,2.83
2022-09-13T15:16:03.551Z,2.85
2022-09-13T15:19:47.400Z,2.83
2022-09-13T15:23:04.016Z,2.40
2022-09-13T15:26:36.140Z,2.75
2022-09-13T15:30:05.547Z,3.03
2022-09-13T15:33:36.182Z,3.35
2022-09-13T15:36:54.141Z,3.78
2022-09-13T15:40:26.807Z,3.88
2022-09-13T15:43:42.920Z,3.10
2022-09-13T15:47:03.114Z,2.98
2022-09-13T15:50:32.101Z,3.30
2022-09-13T15:53:50.453Z,2.98
2022-09-13T15:57:08.204Z,2.80
2022-09-13T16:00:31.179Z,2.88
2022-09-13T16:03:47.427Z,2.73
2022-09-13T16:07:03.509Z,3.48
2022-09-13T16:10:28.208Z,3.15
2022-09-13T16:13:44.479Z,3.90
2022-09-13T16:17:00.625Z,4.00
2022-09-13T16:20:21.778Z,3.25
2022-09-13T16:23:37.773Z,3.43
2022-09-13T16:26:54.177Z,3.83
2022-09-13T16:30:10.886Z,9.78
2022-09-13T16:33:27.383Z,4.55
2022-09-13T16:36:43.706Z,3.60
2022-09-13T16:40:03.323Z,3.55
2022-09-13T16:43:19.598Z,3.20
2022-09-13T16:46:35.943Z,3.38
2022-09-13T16:49:53.578Z,3.60
2022-09-13T16:53:10.029Z,3.63
2022-09-13T16:56:32.844Z,3.13
2022-09-13T16:59:49.332Z,3.28
2022-09-13T17:03:06.971Z,3.50
2022-09-13T17:06:26.048Z,3.35
2022-09-13T17:12:58.894Z,4.08
2022-09-13T17:16:27.552Z,4.35
2022-09-13T17:19:45.325Z,4.40
2022-09-13T17:23:02.886Z,4.65
2022-09-13T17:26:20.842Z,4.73
2022-09-13T17:29:37.897Z,4.20
2022-09-13T17:32:55.431Z,4.13
2022-09-13T17:36:17.408Z,4.13
2022-09-13T17:39:34.898Z,3.80
2022-09-13T17:42:52.991Z,3.75
2022-09-13T17:46:14.816Z,4.28
2022-09-13T17:49:32.716Z,4.53
2022-09-13T17:52:49.994Z,5.65
2022-09-13T17:56:07.754Z,5.53
2022-09-13T17:59:30.787Z,6.10
2022-09-13T18:02:52.980Z,7.10
2022-09-13T18:06:18.882Z,7.75
2022-09-13T18:09:36.706Z,7.93
2022-09-13T18:12:53.937Z,7.50
2022-09-13T18:16:18.557Z,7.08
2022-09-13T18:19:45.766Z,6.73
2022-09-13T18:22:53.944Z,6.33
2022-09-13T18:26:15.008Z,5.75
2022-09-13T18:29:36.272Z,5.73
2022-09-13T18:32:54.066Z,5.33
2022-09-13T18:36:16.063Z,5.53
2022-09-13T18:39:35.567Z,6.43
2022-09-13T18:42:53.757Z,6.40
2022-09-13T18:46:13.366Z,6.13
2022-09-13T18:49:32.218Z,5.78
2022-09-13T18:52:53.183Z,5.90
2022-09-13T18:56:19.723Z,5.73
2022-09-13T18:59:37.939Z,5.93
2022-09-13T19:03:11.819Z,5.08
2022-09-13T19:06:29.000Z,5.08
2022-09-13T19:09:47.872Z,4.90
2022-09-13T19:13:08.989Z,5.10
2022-09-13T19:16:29.385Z,4.60
2022-09-13T19:19:49.773Z,5.03
2022-09-13T19:23:08.211Z,5.28
2022-09-13T19:26:34.780Z,5.30
2022-09-13T19:30:04.364Z,4.55
2022-09-13T19:33:27.863Z,4.43
2022-09-13T19:36:47.784Z,3.90
2022-09-13T19:40:08.772Z,3.93
2022-09-13T19:43:27.968Z,4.15
2022-09-13T19:46:47.960Z,4.30
2022-09-13T19:50:06.189Z,3.83
2022-09-13T19:53:40.811Z,3.78
2022-09-13T19:56:47.950Z,4.38
2022-09-13T20:00:05.182Z,3.88
2022-09-13T20:03:24.007Z,4.18
2022-09-13T20:06:46.389Z,4.03
2022-09-13T20:10:05.426Z,3.85
2022-09-13T20:13:25.292Z,4.25
2022-09-13T20:16:47.006Z,3.78
2022-09-13T20:20:04.317Z,3.68
2022-09-13T20:23:25.435Z,3.50
2022-09-13T20:26:44.590Z,3.63
2022-09-13T20:30:01.584Z,3.50
2022-09-13T20:33:18.942Z,3.65
2022-09-13T20:36:40.183Z,3.70
2022-09-13T20:39:57.485Z,3.45
2022-09-13T20:43:14.074Z,3.90
2022-09-13T20:46:32.465Z,3.85
2022-09-13T20:49:49.410Z,3.77
2022-09-13T20:53:06.447Z,3.68
2022-09-13T20:56:25.659Z,3.85
2022-09-13T20:59:41.752Z,3.20
2022-09-13T21:03:00.901Z,3.40
2022-09-13T21:09:32.595Z,3.20
2022-09-13T21:12:49.887Z,3.45
2022-09-13T21:16:12.148Z,2.90
2022-09-13T21:19:28.225Z,3.58
2022-09-13T21:22:47.825Z,3.30
2022-09-13T21:26:04.200Z,2.88
2022-09-13T21:29:20.933Z,3.30
2022-09-13T21:32:37.798Z,2.90
2022-09-13T21:35:54.924Z,2.95
2022-09-13T21:39:12.494Z,3.00
2022-09-13T21:42:28.888Z,2.85
2022-09-13T21:45:46.635Z,3.15
2022-09-13T21:49:06.382Z,3.10
2022-09-13T21:52:22.370Z,3.33
2022-09-13T21:55:41.983Z,2.90
2022-09-13T21:59:01.142Z,2.60
